createdAt,value
2018-04-22T00:01:09.568Z,7.80
2018-04-22T00:03:37.853Z,8.45
2018-04-22T00:06:06.121Z,8.70
2018-04-22T00:08:33.633Z,9.68
2018-04-22T00:11:01.166Z,9.20
2018-04-22T00:13:28.720Z,7.15
2018-04-22T00:15:57.017Z,7.80
2018-04-22T00:18:24.531Z,7.82
2018-04-22T00:20:52.054Z,7.43
2018-04-22T00:23:19.583Z,8.30
2018-04-22T00:25:47.112Z,8.00
2018-04-22T00:28:14.641Z,8.85
2018-04-22T00:30:42.166Z,10.40
2018-04-22T00:33:09.713Z,10.35
2018-04-22T00:35:37.226Z,9.32
2018-04-22T00:38:04.739Z,7.00
2018-04-22T00:40:33.011Z,7.72
2018-04-22T00:43:01.281Z,7.27
2018-04-22T00:45:29.593Z,7.18
2018-04-22T00:47:57.124Z,7.65
2018-04-22T00:50:24.699Z,7.80
2018-04-22T00:52:52.211Z,6.90
2018-04-22T00:55:19.745Z,7.28
2018-04-22T00:57:47.243Z,7.50
2018-04-22T01:00:14.818Z,6.53
2018-04-22T01:02:43.093Z,6.78
2018-04-22T01:05:10.592Z,7.57
2018-04-22T01:07:38.139Z,7.28
2018-04-22T01:10:05.683Z,7.70
2018-04-22T01:12:33.206Z,6.57
2018-04-22T01:15:00.709Z,7.30
2018-04-22T01:17:28.232Z,6.68
2018-04-22T01:19:56.514Z,6.40
2018-04-22T01:22:24.027Z,6.65
2018-04-22T01:24:51.598Z,6.50
2018-04-22T01:27:19.115Z,7.90
2018-04-22T01:29:46.669Z,7.18
2018-04-22T01:32:14.952Z,6.70
2018-04-22T01:34:43.220Z,7.35
2018-04-22T01:37:11.507Z,8.60
2018-04-22T01:39:39.799Z,7.20
2018-04-22T01:42:07.324Z,7.22
2018-04-22T01:44:34.831Z,6.10
2018-04-22T01:47:02.359Z,7.30
2018-04-22T01:49:30.674Z,7.28
2018-04-22T01:51:58.215Z,8.80
2018-04-22T01:54:25.739Z,8.35
2018-04-22T01:56:54.014Z,8.43
2018-04-22T01:59:21.565Z,8.10
2018-04-22T02:01:49.072Z,8.10
2018-04-22T02:04:16.630Z,7.60
2018-04-22T02:06:44.129Z,6.90
2018-04-22T02:09:11.647Z,7.25
2018-04-22T02:11:39.163Z,7.18
2018-04-22T02:14:06.660Z,7.62
2018-04-22T02:16:34.931Z,7.40
2018-04-22T02:19:03.206Z,7.30
2018-04-22T02:21:31.482Z,7.18
2018-04-22T02:23:59.783Z,7.30
2018-04-22T02:26:27.318Z,7.95
2018-04-22T02:28:55.601Z,7.90
2018-04-22T02:31:23.139Z,7.87
2018-04-22T02:33:50.640Z,7.50
2018-04-22T02:36:18.167Z,6.90
2018-04-22T02:38:46.453Z,7.97
2018-04-22T02:41:13.994Z,6.37
2018-04-22T02:43:42.284Z,7.55
2018-04-22T02:46:10.577Z,7.27
2018-04-22T02:48:38.102Z,7.50
2018-04-22T02:51:05.675Z,7.20
2018-04-22T02:53:33.941Z,8.13
2018-04-22T02:56:01.460Z,8.05
2018-04-22T02:58:28.988Z,6.60
2018-04-22T03:00:56.512Z,7.75
2018-04-22T03:03:24.035Z,7.47
2018-04-22T03:05:51.535Z,8.20
2018-04-22T03:08:19.060Z,7.40
2018-04-22T03:10:46.577Z,7.32
2018-04-22T03:13:14.848Z,6.55
2018-04-22T03:15:43.120Z,8.18
2018-04-22T03:18:11.387Z,6.90
2018-04-22T03:20:38.922Z,7.10
2018-04-22T03:23:06.412Z,7.50
2018-04-22T03:25:33.929Z,7.40
2018-04-22T03:28:01.468Z,7.20
2018-04-22T03:30:28.975Z,7.47
2018-04-22T03:32:56.478Z,6.15
2018-04-22T03:35:24.002Z,7.85
2018-04-22T03:37:51.548Z,7.37
2018-04-22T03:40:19.063Z,6.97
2018-04-22T03:42:46.582Z,7.53
2018-04-22T03:45:14.114Z,6.70
2018-04-22T03:47:41.625Z,6.75
2018-04-22T03:50:09.183Z,6.95
2018-04-22T03:52:37.461Z,6.40
2018-04-22T03:55:05.741Z,6.33
2018-04-22T03:57:33.254Z,6.87
2018-04-22T04:00:00.761Z,7.30
2018-04-22T04:02:28.301Z,7.45
2018-04-22T04:04:56.590Z,7.70
2018-04-22T04:07:24.870Z,6.70
2018-04-22T04:09:52.397Z,6.18
2018-04-22T04:12:19.957Z,7.00
2018-04-22T04:14:47.481Z,7.75
2018-04-22T04:17:14.990Z,7.80
2018-04-22T04:19:54.385Z,6.95
2018-04-22T04:22:33.845Z,6.85
2018-04-22T04:27:57.851Z,6.60
2018-04-22T04:30:25.373Z,6.72
2018-04-22T04:32:52.893Z,6.70
2018-04-22T04:35:21.177Z,6.87
2018-04-22T04:37:49.451Z,7.07
2018-04-22T04:40:17.741Z,6.28
2018-04-22T04:42:45.268Z,6.40
2018-04-22T04:45:12.815Z,6.28
2018-04-22T04:47:40.341Z,6.18
2018-04-22T04:50:07.862Z,6.00
2018-04-22T04:52:35.377Z,6.12
2018-04-22T04:55:02.888Z,6.40
2018-04-22T04:57:31.177Z,6.20
2018-04-22T04:59:58.689Z,6.50
2018-04-22T05:02:26.191Z,6.70
2018-04-22T05:04:53.715Z,6.10
2018-04-22T05:07:22.002Z,6.30
2018-04-22T05:09:49.550Z,6.72
2018-04-22T05:12:17.112Z,6.10
2018-04-22T05:14:44.655Z,6.07
2018-04-22T05:17:12.180Z,6.70
2018-04-22T05:19:39.691Z,6.00
2018-04-22T05:22:07.200Z,6.55
2018-04-22T05:24:34.731Z,5.57
2018-04-22T05:27:02.249Z,5.85
2018-04-22T05:29:29.748Z,6.57
2018-04-22T05:31:58.043Z,6.00
2018-04-22T05:34:25.566Z,5.85
2018-04-22T05:36:53.069Z,7.37
2018-04-22T05:39:20.587Z,6.70
2018-04-22T05:41:48.895Z,7.37
2018-04-22T05:44:16.403Z,7.47
2018-04-22T05:46:43.913Z,8.32
2018-04-22T05:49:11.494Z,7.03
2018-04-22T05:51:39.007Z,5.70
2018-04-22T05:54:06.513Z,5.93
2018-04-22T05:56:34.034Z,6.90
2018-04-22T05:59:02.333Z,5.90
2018-04-22T06:01:29.854Z,6.37
2018-04-22T06:03:57.376Z,6.07
2018-04-22T06:06:24.878Z,6.20
2018-04-22T06:08:52.391Z,6.80
2018-04-22T06:11:19.900Z,6.95
2018-04-22T06:13:47.409Z,8.30
2018-04-22T06:16:14.930Z,7.97
2018-04-22T06:18:43.239Z,7.80
2018-04-22T06:21:10.758Z,11.48
2018-04-22T06:23:38.287Z,7.40
2018-04-22T06:26:05.812Z,7.30
2018-04-22T06:28:34.116Z,7.70
2018-04-22T06:31:01.640Z,8.07
2018-04-22T06:33:29.162Z,7.80
2018-04-22T06:35:56.680Z,6.68
2018-04-22T06:38:24.181Z,7.57
2018-04-22T06:40:51.706Z,7.68
2018-04-22T06:43:19.214Z,7.75
2018-04-22T06:45:46.728Z,8.00
2018-04-22T06:48:14.247Z,12.75
2018-04-22T06:50:42.553Z,7.62
2018-04-22T06:53:10.163Z,7.85
2018-04-22T06:55:37.710Z,6.75
2018-04-22T06:58:05.251Z,7.07
2018-04-22T07:00:32.773Z,6.87
2018-04-22T07:03:00.284Z,8.27
2018-04-22T07:05:27.838Z,5.70
2018-04-22T07:07:55.306Z,5.70
2018-04-22T07:10:22.813Z,6.12
2018-04-22T07:12:50.320Z,5.40
2018-04-22T07:15:17.829Z,5.37
2018-04-22T07:17:45.338Z,5.62
2018-04-22T07:20:12.853Z,5.90
2018-04-22T07:22:40.406Z,5.00
2018-04-22T07:25:08.040Z,6.10
2018-04-22T07:27:35.584Z,5.03
2018-04-22T07:30:03.119Z,4.97
2018-04-22T07:32:30.637Z,5.62
2018-04-22T07:34:58.913Z,4.70
2018-04-22T07:37:27.319Z,5.00
2018-04-22T07:39:54.864Z,4.50
2018-04-22T07:42:22.444Z,4.50
2018-04-22T07:44:49.910Z,5.05
2018-04-22T07:47:17.487Z,5.60
2018-04-22T07:49:45.045Z,4.80
2018-04-22T07:52:12.581Z,4.87
2018-04-22T07:54:40.135Z,4.78
2018-04-22T07:57:07.634Z,5.30
2018-04-22T07:59:35.176Z,5.70
2018-04-22T08:02:02.755Z,6.25
2018-04-22T08:04:30.326Z,5.10
2018-04-22T08:06:57.871Z,6.00
2018-04-22T08:09:25.471Z,5.97
2018-04-22T08:11:53.684Z,5.80
2018-04-22T08:14:22.014Z,6.40
2018-04-22T08:16:49.584Z,6.60
2018-04-22T08:19:18.995Z,6.30
2018-04-22T08:21:46.868Z,6.35
2018-04-22T08:24:15.027Z,5.80
2018-04-22T08:26:43.336Z,7.20
2018-04-22T08:29:11.181Z,6.90
2018-04-22T08:31:38.826Z,6.80
2018-04-22T08:34:06.355Z,7.05
2018-04-22T08:36:33.853Z,7.95
2018-04-22T08:39:01.395Z,8.05
2018-04-22T08:41:28.952Z,7.47
2018-04-22T08:43:56.554Z,7.60
2018-04-22T08:46:24.162Z,7.20
2018-04-22T08:48:51.736Z,7.00
2018-04-22T08:51:19.333Z,7.65
2018-04-22T08:53:47.607Z,8.35
2018-04-22T08:56:16.040Z,8.50
2018-04-22T08:58:43.638Z,7.93
2018-04-22T09:01:11.196Z,8.40
2018-04-22T09:03:39.881Z,7.65
2018-04-22T09:06:09.105Z,8.95
2018-04-22T09:08:37.541Z,8.40
2018-04-22T09:11:08.805Z,9.15
2018-04-22T09:13:36.457Z,10.48
2018-04-22T09:16:03.986Z,9.13
2018-04-22T09:18:31.529Z,9.57
2018-04-22T09:20:59.090Z,9.25
2018-04-22T09:23:26.660Z,9.32
2018-04-22T09:25:54.234Z,8.83
2018-04-22T09:28:21.852Z,9.00
2018-04-22T09:30:50.180Z,8.65
2018-04-22T09:33:18.654Z,8.73
2018-04-22T09:35:46.154Z,8.90
2018-04-22T09:38:13.678Z,9.07
2018-04-22T09:40:41.228Z,9.07
2018-04-22T09:43:08.876Z,9.80
2018-04-22T09:45:36.362Z,8.97
2018-04-22T09:48:03.912Z,8.50
2018-04-22T09:50:31.515Z,8.65
2018-04-22T09:52:59.071Z,8.20
2018-04-22T09:55:27.732Z,8.60
2018-04-22T09:57:55.417Z,8.43
2018-04-22T10:00:28.627Z,8.25
2018-04-22T10:02:56.959Z,8.35
2018-04-22T10:05:24.492Z,9.15
2018-04-22T10:07:52.011Z,9.18
2018-04-22T10:10:20.296Z,8.75
2018-04-22T10:12:48.633Z,7.87
2018-04-22T10:15:16.228Z,8.50
2018-04-22T10:17:44.535Z,8.88
2018-04-22T10:20:12.078Z,21.73
2018-04-22T10:22:39.614Z,8.43
2018-04-22T10:25:07.118Z,9.18
2018-04-22T10:27:34.639Z,8.82
2018-04-22T10:30:02.214Z,8.23
2018-04-22T10:32:30.487Z,8.18
2018-04-22T10:34:58.766Z,8.18
2018-04-22T10:37:27.065Z,11.97
2018-04-22T10:39:54.644Z,8.13
2018-04-22T10:42:22.153Z,7.97
2018-04-22T10:44:50.463Z,6.90
2018-04-22T10:47:17.997Z,7.30
2018-04-22T10:49:45.513Z,7.23
2018-04-22T10:52:13.026Z,6.20
2018-04-22T10:54:41.292Z,6.80
2018-04-22T10:57:09.577Z,7.23
2018-04-22T10:59:37.871Z,6.57
2018-04-22T11:02:05.404Z,7.40
2018-04-22T11:04:33.693Z,6.80
2018-04-22T11:07:01.270Z,6.87
2018-04-22T11:09:28.791Z,5.70
2018-04-22T11:11:56.306Z,6.20
2018-04-22T11:14:23.822Z,6.00
2018-04-22T11:16:52.089Z,7.00
2018-04-22T11:19:19.690Z,5.77
2018-04-22T11:21:47.218Z,6.00
2018-04-22T11:24:15.545Z,5.30
2018-04-22T11:26:43.063Z,6.40
2018-04-22T11:29:10.703Z,5.73
2018-04-22T11:31:38.209Z,5.90
2018-04-22T11:34:05.742Z,6.20
2018-04-22T11:36:33.245Z,6.10
2018-04-22T11:39:00.814Z,5.27
2018-04-22T11:41:28.381Z,6.30
2018-04-22T11:43:55.914Z,6.87
2018-04-22T11:46:23.422Z,8.15
2018-04-22T11:48:50.954Z,6.85
2018-04-22T11:51:18.479Z,4.80
2018-04-22T11:53:45.997Z,4.75
2018-04-22T11:56:13.529Z,4.82
2018-04-22T11:58:41.089Z,4.25
2018-04-22T12:01:08.732Z,4.70
2018-04-22T12:03:36.378Z,5.30
2018-04-22T12:06:03.881Z,5.80
2018-04-22T12:08:31.401Z,5.10
2018-04-22T12:10:58.920Z,4.90
2018-04-22T12:13:26.512Z,4.70
2018-04-22T12:15:54.785Z,4.60
2018-04-22T12:18:22.299Z,5.40
2018-04-22T12:20:49.940Z,5.15
2018-04-22T12:23:18.149Z,5.12
2018-04-22T12:25:45.705Z,5.00
2018-04-22T12:28:13.234Z,4.95
2018-04-22T12:30:40.854Z,4.70
2018-04-22T12:33:08.393Z,5.75
2018-04-22T12:35:36.762Z,5.90
2018-04-22T12:38:04.371Z,4.90
2018-04-22T12:40:32.678Z,5.00
2018-04-22T12:43:00.186Z,5.05
2018-04-22T12:45:27.733Z,5.32
2018-04-22T12:47:55.301Z,4.80
2018-04-22T12:50:22.949Z,5.85
2018-04-22T12:52:50.463Z,5.47
2018-04-22T12:55:18.018Z,4.82
2018-04-22T12:57:45.541Z,4.68
2018-04-22T13:00:13.049Z,4.68
2018-04-22T13:02:40.717Z,4.47
2018-04-22T13:05:08.243Z,4.50
2018-04-22T13:07:36.686Z,7.10
2018-04-22T13:10:04.203Z,4.60
2018-04-22T13:12:32.248Z,4.70
2018-04-22T13:14:59.754Z,4.28
2018-04-22T13:17:27.281Z,4.60
2018-04-22T13:19:54.862Z,5.30
2018-04-22T13:22:22.386Z,6.65
2018-04-22T13:24:49.886Z,4.50
2018-04-22T13:27:17.406Z,4.60
2018-04-22T13:29:45.711Z,4.47
2018-04-22T13:32:13.231Z,4.50
2018-04-22T13:34:40.825Z,4.15
2018-04-22T13:37:08.484Z,4.60
2018-04-22T13:39:36.767Z,4.80
2018-04-22T13:42:04.322Z,7.50
2018-04-22T13:44:31.876Z,5.55
2018-04-22T13:47:00.266Z,3.87
2018-04-22T13:49:27.781Z,4.00
2018-04-22T13:51:55.376Z,4.12
2018-04-22T13:54:23.017Z,4.05
2018-04-22T13:56:50.505Z,4.50
2018-04-22T13:59:18.028Z,5.07
2018-04-22T14:01:45.530Z,4.75
2018-04-22T14:04:13.050Z,5.12
2018-04-22T14:06:41.333Z,5.55
2018-04-22T14:09:09.660Z,4.50
2018-04-22T14:11:37.164Z,4.50
2018-04-22T14:14:04.669Z,5.00
2018-04-22T14:16:32.161Z,4.15
2018-04-22T14:18:59.687Z,4.07
2018-04-22T14:21:27.219Z,3.83
2018-04-22T14:23:54.746Z,4.28
2018-04-22T14:26:23.220Z,4.00
2018-04-22T14:28:50.733Z,4.60
2018-04-22T14:31:18.242Z,5.32
2018-04-22T14:33:45.774Z,4.90
2018-04-22T14:36:13.277Z,6.47
2018-04-22T14:38:40.798Z,4.87
2018-04-22T14:41:08.318Z,4.93
2018-04-22T14:43:36.639Z,4.30
2018-04-22T14:46:12.970Z,4.55
2018-04-22T14:49:02.118Z,4.72
2018-04-22T14:51:29.649Z,5.40
2018-04-22T14:53:57.171Z,4.70
2018-04-22T14:56:24.755Z,4.40
2018-04-22T14:58:52.268Z,4.50
2018-04-22T15:01:20.639Z,4.95
2018-04-22T15:03:48.938Z,4.50
2018-04-22T15:06:16.512Z,5.07
2018-04-22T15:08:44.089Z,4.62
2018-04-22T15:11:11.681Z,5.22
2018-04-22T15:13:39.199Z,5.00
2018-04-22T15:16:06.713Z,4.50
2018-04-22T15:18:35.090Z,4.15
2018-04-22T15:21:02.660Z,4.70
2018-04-22T15:23:30.205Z,4.28
2018-04-22T15:25:57.718Z,4.68
2018-04-22T15:28:25.230Z,4.40
2018-04-22T15:30:53.533Z,5.68
2018-04-22T15:33:21.066Z,5.85
2018-04-22T15:35:48.602Z,5.40
2018-04-22T15:38:16.203Z,5.22
2018-04-22T15:40:43.735Z,6.20
2018-04-22T15:43:11.247Z,4.93
2018-04-22T15:45:38.773Z,4.53
2018-04-22T15:48:06.302Z,4.75
2018-04-22T15:50:33.812Z,5.55
2018-04-22T15:53:01.373Z,6.70
2018-04-22T15:55:29.016Z,6.40
2018-04-22T15:57:56.588Z,4.87
2018-04-22T16:00:24.144Z,5.90
2018-04-22T16:02:51.680Z,5.03
2018-04-22T16:05:19.187Z,4.95
2018-04-22T16:07:46.722Z,5.45
2018-04-22T16:10:14.273Z,4.55
2018-04-22T16:12:42.557Z,5.43
2018-04-22T16:15:10.854Z,4.78
2018-04-22T16:17:38.384Z,4.50
2018-04-22T16:20:05.933Z,4.83
2018-04-22T16:22:33.476Z,5.03
2018-04-22T16:25:00.996Z,4.70
2018-04-22T16:27:28.533Z,4.90
2018-04-22T16:29:56.841Z,6.03
2018-04-22T16:32:24.439Z,5.90
2018-04-22T16:34:51.968Z,6.72
2018-04-22T16:37:19.478Z,5.10
2018-04-22T16:39:47.777Z,6.00
2018-04-22T16:42:15.314Z,7.82
2018-04-22T16:44:43.655Z,7.32
2018-04-22T16:47:11.293Z,6.93
2018-04-22T16:49:38.821Z,6.80
2018-04-22T16:52:06.346Z,5.85
2018-04-22T16:54:34.663Z,5.12
2018-04-22T16:57:02.187Z,5.00
2018-04-22T16:59:29.753Z,4.55
2018-04-22T17:01:57.384Z,5.90
2018-04-22T17:04:24.922Z,4.93
2018-04-22T17:06:52.478Z,5.65
2018-04-22T17:09:20.009Z,5.22
2018-04-22T17:11:47.548Z,5.70
2018-04-22T17:14:15.060Z,5.70
2018-04-22T17:16:42.575Z,6.25
2018-04-22T17:19:10.123Z,6.50
2018-04-22T17:21:37.641Z,7.22
2018-04-22T17:24:05.153Z,7.22
2018-04-22T17:26:32.670Z,6.72
2018-04-22T17:29:00.193Z,7.18
2018-04-22T17:31:27.718Z,5.62
2018-04-22T17:33:55.232Z,7.25
2018-04-22T17:36:22.777Z,9.07
2018-04-22T17:38:51.091Z,6.80
2018-04-22T17:41:18.708Z,6.20
2018-04-22T17:43:46.244Z,6.47
2018-04-22T17:46:14.514Z,6.90
2018-04-22T17:48:42.040Z,7.50
2018-04-22T17:51:09.599Z,11.55
2018-04-22T17:53:37.152Z,11.55
2018-04-22T17:56:04.706Z,9.30
2018-04-22T17:58:32.221Z,9.70
2018-04-22T18:00:59.724Z,9.85
2018-04-22T18:03:27.277Z,8.65
2018-04-22T18:05:54.789Z,10.95
2018-04-22T18:08:22.318Z,9.77
2018-04-22T18:10:49.999Z,21.10
2018-04-22T18:13:17.572Z,21.50
2018-04-22T18:15:45.086Z,38.80
2018-04-22T18:18:13.377Z,13.20
2018-04-22T18:20:41.177Z,9.77
2018-04-22T18:23:08.748Z,7.97
2018-04-22T18:25:36.285Z,7.10
2018-04-22T18:28:03.878Z,11.30
2018-04-22T18:30:31.483Z,17.10
2018-04-22T18:32:59.052Z,11.75
2018-04-22T18:35:26.609Z,9.23
2018-04-22T18:37:54.158Z,9.87
2018-04-22T18:40:21.673Z,7.62
2018-04-22T18:42:49.190Z,8.45
2018-04-22T18:45:16.754Z,7.25
2018-04-22T18:47:44.269Z,10.95
2018-04-22T18:50:11.800Z,8.70
2018-04-22T18:52:39.348Z,8.02
2018-04-22T18:55:06.908Z,10.87
2018-04-22T18:57:34.521Z,8.20
2018-04-22T19:00:02.831Z,13.15
2018-04-22T19:02:30.412Z,8.20
2018-04-22T19:04:57.925Z,8.30
2018-04-22T19:07:26.206Z,6.87
2018-04-22T19:09:54.509Z,8.95
2018-04-22T19:12:22.075Z,13.35
2018-04-22T19:14:49.792Z,8.93
2018-04-22T19:17:17.382Z,7.83
2018-04-22T19:19:44.877Z,7.78
2018-04-22T19:22:12.408Z,8.70
2018-04-22T19:24:39.944Z,12.20
2018-04-22T19:27:07.496Z,10.00
2018-04-22T19:29:35.845Z,10.18
2018-04-22T19:32:03.370Z,11.38
2018-04-22T19:34:30.901Z,13.47
2018-04-22T19:36:59.219Z,10.65
2018-04-22T19:39:26.764Z,9.23
2018-04-22T19:41:54.282Z,8.27
2018-04-22T19:44:21.844Z,7.90
2018-04-22T19:46:50.152Z,8.38
2018-04-22T19:49:17.746Z,7.35
2018-04-22T19:51:45.307Z,7.87
2018-04-22T19:54:12.824Z,7.90
2018-04-22T19:56:41.133Z,8.35
2018-04-22T19:59:14.378Z,11.57
2018-04-22T20:01:41.906Z,8.70
2018-04-22T20:04:09.495Z,8.35
2018-04-22T20:06:37.811Z,9.05
2018-04-22T20:09:06.155Z,10.20
2018-04-22T20:11:33.702Z,8.95
2018-04-22T20:14:01.375Z,8.02
2018-04-22T20:16:28.909Z,8.18
2018-04-22T20:18:56.448Z,8.35
2018-04-22T20:21:23.983Z,9.05
2018-04-22T20:23:51.508Z,12.20
2018-04-22T20:26:19.078Z,23.17
2018-04-22T20:28:46.631Z,11.90
2018-04-22T20:31:14.213Z,9.27
2018-04-22T20:33:41.791Z,10.40
2018-04-22T20:36:10.075Z,9.43
2018-04-22T20:38:37.604Z,9.10
2018-04-22T20:41:05.128Z,8.80
2018-04-22T20:43:33.294Z,9.07
2018-04-22T20:46:01.941Z,11.25
2018-04-22T20:48:29.523Z,11.63
2018-04-22T20:50:57.848Z,9.73
2018-04-22T20:53:25.435Z,9.60
2018-04-22T20:55:52.990Z,9.27
2018-04-22T20:58:21.311Z,9.45
2018-04-22T21:00:48.933Z,10.60
2018-04-22T21:03:16.680Z,9.35
2018-04-22T21:05:44.222Z,9.48
2018-04-22T21:08:11.737Z,9.68
2018-04-22T21:10:39.260Z,9.55
2018-04-22T21:13:07.604Z,10.20
2018-04-22T21:15:35.167Z,9.80
2018-04-22T21:18:02.690Z,10.20
2018-04-22T21:20:30.576Z,9.40
2018-04-22T21:22:58.140Z,8.10
2018-04-22T21:25:25.658Z,8.82
2018-04-22T21:27:53.193Z,8.00
2018-04-22T21:30:20.744Z,7.20
2018-04-22T21:32:48.291Z,7.15
2018-04-22T21:35:15.810Z,7.60
2018-04-22T21:37:43.384Z,7.85
2018-04-22T21:40:10.912Z,7.22
2018-04-22T21:42:38.504Z,7.20
2018-04-22T21:45:06.120Z,6.18
2018-04-22T21:47:34.491Z,5.12
2018-04-22T21:50:02.027Z,6.00
2018-04-22T21:52:30.421Z,6.43
2018-04-22T21:54:57.920Z,7.20
2018-04-22T21:57:25.601Z,6.90
2018-04-22T21:59:53.177Z,6.47
2018-04-22T22:02:20.693Z,6.18
2018-04-22T22:04:49.006Z,7.70
2018-04-22T22:07:16.522Z,6.28
2018-04-22T22:09:44.097Z,5.40
2018-04-22T22:12:12.397Z,5.53
2018-04-22T22:14:39.942Z,5.97
2018-04-22T22:17:07.465Z,5.93
2018-04-22T22:19:35.027Z,4.87
2018-04-22T22:22:02.540Z,5.62
2018-04-22T22:24:30.052Z,4.78
2018-04-22T22:26:57.586Z,5.50
2018-04-22T22:29:25.115Z,7.25
2018-04-22T22:31:52.640Z,18.73
2018-04-22T22:34:20.931Z,5.65
2018-04-22T22:36:49.211Z,5.53
2018-04-22T22:39:17.514Z,5.28
2018-04-22T22:41:45.032Z,5.03
2018-04-22T22:44:12.589Z,4.72
2018-04-22T22:46:40.100Z,5.10
2018-04-22T22:49:07.613Z,4.75
2018-04-22T22:51:35.208Z,5.20
2018-04-22T22:54:02.870Z,5.15
2018-04-22T22:56:30.400Z,5.15
2018-04-22T22:58:57.913Z,4.62
2018-04-22T23:01:25.449Z,6.05
2018-04-22T23:03:52.955Z,5.72
2018-04-22T23:06:36.615Z,6.00
2018-04-22T23:09:04.246Z,5.72
2018-04-22T23:11:31.756Z,5.55
2018-04-22T23:13:59.268Z,5.80
2018-04-22T23:16:27.537Z,5.80
2018-04-22T23:18:55.766Z,6.15
2018-04-22T23:21:23.279Z,6.97
2018-04-22T23:23:50.806Z,6.12
2018-04-22T23:26:18.348Z,6.57
2018-04-22T23:28:45.883Z,7.93
2018-04-22T23:31:13.398Z,7.90
2018-04-22T23:33:40.939Z,7.20
2018-04-22T23:36:08.478Z,6.82
2018-04-22T23:38:36.761Z,7.22
2018-04-22T23:41:04.275Z,7.70
2018-04-22T23:43:31.853Z,7.45
2018-04-22T23:46:00.142Z,6.68
2018-04-22T23:48:28.430Z,7.18
2018-04-22T23:50:56.697Z,8.93
2018-04-22T23:53:24.991Z,6.80
2018-04-22T23:55:52.499Z,5.75
2018-04-22T23:58:20.000Z,7.30
